Time;durP1;ratioP1;P1;durP2;ratioP2;P2;SDS_P1;SDS_P2;PMS_P1;PMS_P2;Temp;Humidity;BMP_temperature;BMP_pressure;BME280_temperature;BME280_humidity;BME280_pressure;Samples;Min_cycle;Max_cycle;Signal;HPM_P1;HPM_P2
2021/12/08 00:00:18;;;;;;;22.03;8.77;;;;;;;;;;5095362;28;20793;-66
2021/12/08 00:02:45;;;;;;;26.20;8.30;;;;;;;;;;5114141;28;20503;-68
2021/12/08 00:05:10;;;;;;;;;;;;;;;;;;5094828;28;20479;-68
2021/12/08 00:07:37;;;;;;;26.37;9.63;;;;;;;;;;5092794;28;19920;-73
2021/12/08 00:10:17;;;;;;;21.52;9.55;;;;;;;;;;5106767;28;20083;-67
2021/12/08 00:13:04;;;;;;;21.40;10.20;;;;;;;;;;5114224;28;20051;-64
2021/12/08 00:15:43;;;;;;;27.47;10.23;;;;;;;;;;5097677;28;20097;-75
2021/12/08 00:18:11;;;;;;;22.13;10.30;;;;;;;;;;5094081;28;20040;-72
2021/12/08 00:20:38;;;;;;;24.33;10.60;;;;;;;;;;5110021;28;20056;-67
2021/12/08 00:23:05;;;;;;;25.10;10.40;;;;;;;;;;5114326;28;20047;-66
2021/12/08 00:25:32;;;;;;;24.67;10.90;;;;;;;;;;5112072;28;20057;-72
2021/12/08 00:27:58;;;;;;;30.37;12.50;;;;;;;;;;5108699;28;20127;-67
2021/12/08 00:30:25;;;;;;;27.88;11.30;;;;;;;;;;5097592;28;20039;-65
2021/12/08 00:32:52;;;;;;;25.03;12.23;;;;;;;;;;5113738;28;20142;-67
2021/12/08 00:58:56;;;;;;;38.50;14.97;;;;;;;;;;5311920;22;20083;-67
2021/12/08 01:01:22;;;;;;;27.83;11.85;;;;;;;;;;5073015;28;20056;-66
2021/12/08 01:03:49;;;;;;;26.73;12.68;;;;;;;;;;5074151;28;20066;-65
2021/12/08 01:06:16;;;;;;;27.73;12.10;;;;;;;;;;5072491;28;20071;-67
2021/12/08 01:08:45;;;;;;;32.93;12.67;;;;;;;;;;5073475;28;20080;-66
2021/12/08 01:11:11;;;;;;;;;;;;;;;;;;5074381;28;20045;-66
2021/12/08 01:13:38;;;;;;;26.97;12.23;;;;;;;;;;5073495;28;19931;-69
2021/12/08 01:16:04;;;;;;;30.73;14.02;;;;;;;;;;5072670;28;20075;-67
2021/12/08 01:18:30;;;;;;;30.88;12.65;;;;;;;;;;5073182;28;20477;-75
2021/12/08 01:20:58;;;;;;;24.42;12.00;;;;;;;;;;5073696;28;20048;-69
2021/12/08 01:23:24;;;;;;;26.73;12.63;;;;;;;;;;5071939;28;20053;-66
2021/12/08 01:25:50;;;;;;;;;;;;;;;;;;5072948;28;20127;-73
2021/12/08 01:28:21;;;;;;;27.47;13.07;;;;;;;;;;5073493;28;20043;-68
2021/12/08 01:30:51;;;;;;;26.47;11.77;;;;;;;;;;5072461;28;20127;-69
2021/12/08 01:33:18;;;;;;;28.50;12.57;;;;;;;;;;5073498;28;20051;-69
2021/12/08 01:35:44;;;;;;;27.83;12.73;;;;;;;;;;5072803;28;20048;-71
2021/12/08 01:38:10;;;;;;;29.27;13.25;;;;;;;;;;5072078;28;20040;-68
2021/12/08 01:40:36;;;;;;;26.63;11.27;;;;;;;;;;5055348;28;20047;-67
2021/12/08 01:43:04;;;;;;;28.25;11.38;;;;;;;;;;5073266;28;20059;-66
2021/12/08 01:48:19;;;;;;;27.67;12.53;;;;;;;;;;5073060;28;20127;-69
2021/12/08 01:50:48;;;;;;;23.73;12.40;;;;;;;;;;5072804;28;20504;-70
2021/12/08 01:53:14;;;;;;;22.73;12.20;;;;;;;;;;5073389;28;20123;-69
2021/12/08 01:55:44;;;;;;;23.33;11.57;;;;;;;;;;5072732;28;20052;-68
2021/12/08 01:58:10;;;;;;;26.17;11.52;;;;;;;;;;5072994;28;20079;-74
2021/12/08 02:00:38;;;;;;;25.03;11.87;;;;;;;;;;5071928;28;20566;-69
2021/12/08 02:03:05;;;;;;;22.10;11.23;;;;;;;;;;5072165;28;20055;-79
2021/12/08 02:05:31;;;;;;;;;;;;;;;;;;5073021;28;20055;-73
2021/12/08 02:07:57;;;;;;;24.27;12.67;;;;;;;;;;5071713;28;19924;-68
2021/12/08 02:10:24;;;;;;;26.80;13.40;;;;;;;;;;5072872;28;20439;-68
2021/12/08 02:12:50;;;;;;;26.37;11.50;;;;;;;;;;5072431;28;20060;-81
2021/12/08 02:15:17;;;;;;;25.05;12.00;;;;;;;;;;5072757;28;20093;-71
2021/12/08 02:17:46;;;;;;;20.87;11.37;;;;;;;;;;5072147;28;20149;-70
2021/12/08 02:20:12;;;;;;;22.53;11.63;;;;;;;;;;5072807;28;20040;-73
2021/12/08 02:22:39;;;;;;;24.47;11.80;;;;;;;;;;5072255;28;20044;-74
2021/12/08 02:25:05;;;;;;;;;;;;;;;;;;5073111;28;20088;-69
2021/12/08 02:27:33;;;;;;;22.67;12.73;;;;;;;;;;5072299;28;19943;-71
2021/12/08 02:30:11;;;;;;;29.20;14.07;;;;;;;;;;5072525;28;20106;-72
2021/12/08 02:49:08;;;;;;;23.07;12.00;;;;;;;;;;5073355;28;20055;-74
2021/12/08 02:51:36;;;;;;;21.17;11.90;;;;;;;;;;5072840;28;20048;-74
2021/12/08 02:54:02;;;;;;;30.67;13.30;;;;;;;;;;5073332;28;20095;-77
2021/12/08 02:56:30;;;;;;;23.13;11.75;;;;;;;;;;5072515;28;20463;-73
2021/12/08 02:58:56;;;;;;;19.70;11.00;;;;;;;;;;5071628;28;20404;-78
2021/12/08 03:01:23;;;;;;;20.42;11.63;;;;;;;;;;5072160;28;20041;-79
2021/12/08 03:03:50;;;;;;;24.90;12.00;;;;;;;;;;5070795;28;20057;-73
2021/12/08 03:06:16;;;;;;;21.80;12.93;;;;;;;;;;5072259;28;20048;-75
2021/12/08 03:08:42;;;;;;;22.60;12.97;;;;;;;;;;5053675;28;20131;-78
2021/12/08 03:11:08;;;;;;;24.00;12.45;;;;;;;;;;5072223;28;20047;-84
2021/12/08 03:13:40;;;;;;;27.50;11.73;;;;;;;;;;5074243;28;20474;-72
2021/12/08 03:16:07;;;;;;;22.00;12.00;;;;;;;;;;5075751;28;20071;-74
2021/12/08 03:18:35;;;;;;;26.63;12.97;;;;;;;;;;5075990;28;20072;-74
2021/12/08 03:21:03;;;;;;;27.23;13.10;;;;;;;;;;5075568;28;20102;-73
2021/12/08 03:23:54;;;;;;;22.13;12.63;;;;;;;;;;5074495;28;20131;-75
2021/12/08 03:26:27;;;;;;;24.63;14.20;;;;;;;;;;5075628;28;20045;-79
2021/12/08 03:29:00;;;;;;;25.30;13.13;;;;;;;;;;5075331;28;20053;-71
2021/12/08 03:31:36;;;;;;;25.90;15.03;;;;;;;;;;5075782;28;20122;-74
2021/12/08 03:34:02;;;;;;;26.63;14.70;;;;;;;;;;5075201;28;20056;-70
2021/12/08 03:36:28;;;;;;;27.98;14.77;;;;;;;;;;5074248;28;20055;-71
2021/12/08 03:38:54;;;;;;;27.98;16.23;;;;;;;;;;5075170;28;20048;-79
2021/12/08 03:41:20;;;;;;;33.80;16.67;;;;;;;;;;5075774;28;20044;-70
2021/12/08 03:43:46;;;;;;;31.00;17.33;;;;;;;;;;5074027;28;20053;-70
2021/12/08 03:46:16;;;;;;;25.95;17.67;;;;;;;;;;5075583;28;20056;-76
2021/12/08 03:48:48;;;;;;;29.40;17.37;;;;;;;;;;5073772;28;20489;-71
2021/12/08 03:51:15;;;;;;;29.57;17.73;;;;;;;;;;5075531;28;20052;-78
2021/12/08 03:53:42;;;;;;;31.87;18.60;;;;;;;;;;5075271;28;20492;-72
2021/12/08 03:56:08;;;;;;;;;;;;;;;;;;5075965;28;20055;-71
2021/12/08 03:58:34;;;;;;;31.43;18.90;;;;;;;;;;5075117;28;19924;-91
2021/12/08 04:01:01;;;;;;;27.90;18.60;;;;;;;;;;5074946;28;20052;-82
2021/12/08 04:03:30;;;;;;;30.83;20.33;;;;;;;;;;5075416;28;20044;-82
2021/12/08 04:06:00;;;;;;;36.40;19.33;;;;;;;;;;5074717;28;20450;-77
2021/12/08 04:08:32;;;;;;;33.00;19.47;;;;;;;;;;5075299;28;20431;-76
2021/12/08 04:10:59;;;;;;;31.83;19.93;;;;;;;;;;5074930;28;20511;-73
2021/12/08 04:13:30;;;;;;;32.70;20.57;;;;;;;;;;5074178;28;20056;-72
2021/12/08 04:15:57;;;;;;;32.63;19.57;;;;;;;;;;5074574;28;20049;-74
2021/12/08 04:18:23;;;;;;;;;;;;;;;;;;5075306;28;20059;-72
2021/12/08 04:20:51;;;;;;;32.10;21.43;;;;;;;;;;5074291;28;20436;-80
2021/12/08 04:23:18;;;;;;;33.80;20.93;;;;;;;;;;5074934;28;20051;-72
2021/12/08 04:25:46;;;;;;;37.90;23.75;;;;;;;;;;5073752;28;20052;-71
2021/12/08 04:28:15;;;;;;;38.07;23.00;;;;;;;;;;5074769;28;20044;-70
2021/12/08 04:30:44;;;;;;;38.60;22.50;;;;;;;;;;5073732;28;20048;-72
2021/12/08 04:33:11;;;;;;;35.77;22.10;;;;;;;;;;5074051;28;20055;-68
2021/12/08 04:35:37;;;;;;;38.63;22.10;;;;;;;;;;5074883;28;20131;-74
2021/12/08 04:38:05;;;;;;;36.53;23.30;;;;;;;;;;5074120;28;20040;-71
2021/12/08 04:41:02;;;;;;;35.47;23.07;;;;;;;;;;5074504;28;20048;-71
2021/12/08 04:43:45;;;;;;;39.50;24.07;;;;;;;;;;5073434;28;20044;-69
2021/12/08 04:49:07;;;;;;;39.87;24.07;;;;;;;;;;5074507;28;20052;-70
2021/12/08 04:51:56;;;;;;;36.22;24.25;;;;;;;;;;5074344;28;20614;-71
2021/12/08 05:00:27;;;;;;;37.33;23.13;;;;;;;;;;5073544;28;20207;-77
2021/12/08 05:08:18;;;;;;;41.08;25.52;;;;;;;;;;5072379;28;20056;-72
2021/12/08 05:10:45;;;;;;;40.97;24.40;;;;;;;;;;5073741;28;20161;-70
2021/12/08 05:13:12;;;;;;;34.92;23.90;;;;;;;;;;5073490;28;20473;-73
2021/12/08 05:15:46;;;;;;;40.00;23.50;;;;;;;;;;5073954;28;20053;-78
2021/12/08 05:18:12;;;;;;;37.80;23.00;;;;;;;;;;5073324;28;20044;-74
2021/12/08 05:20:42;;;;;;;37.97;23.45;;;;;;;;;;5073999;28;20041;-76
2021/12/08 05:23:11;;;;;;;32.83;21.70;;;;;;;;;;5073110;28;20063;-76
2021/12/08 05:25:38;;;;;;;36.90;22.95;;;;;;;;;;5073759;28;20041;-79
2021/12/08 05:28:06;;;;;;;39.20;22.90;;;;;;;;;;5072108;28;20055;-78
2021/12/08 05:30:36;;;;;;;44.63;24.80;;;;;;;;;;5055653;28;20044;-79
2021/12/08 05:33:03;;;;;;;36.92;23.30;;;;;;;;;;5072874;28;20447;-75
2021/12/08 05:35:30;;;;;;;41.03;24.45;;;;;;;;;;5055128;28;20049;-77
2021/12/08 05:37:56;;;;;;;37.63;23.60;;;;;;;;;;5073288;28;20080;-77
2021/12/08 05:40:25;;;;;;;40.65;23.60;;;;;;;;;;5072968;28;20489;-74
2021/12/08 05:42:51;;;;;;;39.65;22.42;;;;;;;;;;5073342;28;20048;-75
2021/12/08 05:45:19;;;;;;;36.53;22.48;;;;;;;;;;5072772;28;20484;-76
2021/12/08 05:47:46;;;;;;;40.45;21.30;;;;;;;;;;5072134;28;20090;-73
2021/12/08 05:50:15;;;;;;;33.42;21.20;;;;;;;;;;5072688;28;20083;-77
2021/12/08 05:52:42;;;;;;;36.25;21.98;;;;;;;;;;5072968;28;20040;-81
2021/12/08 05:55:08;;;;;;;;;;;;;;;;;;5073262;28;20099;-71
2021/12/08 05:57:37;;;;;;;30.43;18.23;;;;;;;;;;5073028;28;20380;-83
2021/12/08 06:00:09;;;;;;;35.17;18.90;;;;;;;;;;5072351;28;20098;-83
2021/12/08 06:02:36;;;;;;;28.77;18.77;;;;;;;;;;5071703;28;20053;-83
2021/12/08 06:05:07;;;;;;;29.10;18.08;;;;;;;;;;5072226;28;20052;-71
2021/12/08 06:07:33;;;;;;;32.90;18.83;;;;;;;;;;5071606;28;20105;-79
2021/12/08 06:10:00;;;;;;;29.60;17.42;;;;;;;;;;5072736;28;20098;-86
2021/12/08 06:12:27;;;;;;;30.75;18.40;;;;;;;;;;5072235;28;20051;-83
2021/12/08 06:14:55;;;;;;;30.55;18.42;;;;;;;;;;5072593;28;20048;-79
2021/12/08 06:17:22;;;;;;;28.92;17.50;;;;;;;;;;5071086;28;20055;-83
2021/12/08 06:19:48;;;;;;;32.47;18.45;;;;;;;;;;5072768;28;20044;-77
2021/12/08 06:22:16;;;;;;;31.25;18.02;;;;;;;;;;5072262;28;20040;-87
2021/12/08 06:24:43;;;;;;;31.60;18.02;;;;;;;;;;5072611;28;20138;-79
2021/12/08 06:27:10;;;;;;;31.65;17.95;;;;;;;;;;5072057;28;20053;-80
2021/12/08 06:29:36;;;;;;;27.38;16.80;;;;;;;;;;5072466;28;20042;-82
2021/12/08 06:32:03;;;;;;;34.00;16.95;;;;;;;;;;5072187;28;20087;-77
2021/12/08 06:34:31;;;;;;;31.98;16.55;;;;;;;;;;5072314;28;20084;-86
2021/12/08 06:36:59;;;;;;;27.58;16.63;;;;;;;;;;5072473;28;20135;-79
2021/12/08 06:39:42;;;;;;;30.80;16.40;;;;;;;;;;5050992;28;20081;-76
2021/12/08 06:42:10;;;;;;;31.83;17.13;;;;;;;;;;5052550;28;20396;-79
2021/12/08 06:44:41;;;;;;;25.08;15.38;;;;;;;;;;5054547;28;20071;-76
2021/12/08 06:47:09;;;;;;;31.17;16.42;;;;;;;;;;5038029;28;20594;-77
2021/12/08 06:49:35;;;;;;;28.25;14.98;;;;;;;;;;5055440;28;20049;-73
2021/12/08 06:52:08;;;;;;;29.23;15.23;;;;;;;;;;5056590;28;20110;-82
2021/12/08 06:54:54;;;;;;;26.50;15.52;;;;;;;;;;5054936;28;20060;-84
2021/12/08 06:57:27;;;;;;;25.90;14.75;;;;;;;;;;5054738;28;20045;-85
2021/12/08 07:00:00;;;;;;;25.55;14.10;;;;;;;;;;5056400;28;20061;-82
2021/12/08 07:05:23;;;;;;;26.90;12.95;;;;;;;;;;5056754;28;20060;-79
2021/12/08 07:07:50;;;;;;;26.13;13.88;;;;;;;;;;5056178;28;20049;-69
2021/12/08 07:10:21;;;;;;;27.55;13.77;;;;;;;;;;5054530;28;20055;-76
2021/12/08 07:12:50;;;;;;;29.30;14.20;;;;;;;;;;5056397;28;20049;-74
2021/12/08 07:15:30;;;;;;;22.47;13.03;;;;;;;;;;5055652;28;20096;-80
2021/12/08 07:17:59;;;;;;;25.02;12.82;;;;;;;;;;5055901;28;20150;-73
2021/12/08 07:20:42;;;;;;;23.13;12.07;;;;;;;;;;5055203;28;20142;-74
2021/12/08 07:23:10;;;;;;;22.70;12.07;;;;;;;;;;5054714;28;20052;-76
2021/12/08 07:25:36;;;;;;;23.85;13.32;;;;;;;;;;5037313;28;20157;-75
2021/12/08 07:28:04;;;;;;;28.02;13.23;;;;;;;;;;5054080;28;20519;-75
2021/12/08 07:30:33;;;;;;;24.98;12.63;;;;;;;;;;5054552;28;20106;-73
2021/12/08 07:32:59;;;;;;;22.27;11.93;;;;;;;;;;5054708;28;20128;-70
2021/12/08 07:35:34;;;;;;;21.63;11.27;;;;;;;;;;5054242;28;20099;-80
2021/12/08 07:38:00;;;;;;;21.77;11.20;;;;;;;;;;5054311;28;20047;-74
2021/12/08 07:40:28;;;;;;;22.70;11.43;;;;;;;;;;5052479;28;20045;-76
2021/12/08 07:42:58;;;;;;;21.58;10.85;;;;;;;;;;5054001;28;20045;-72
2021/12/08 07:45:30;;;;;;;19.25;10.65;;;;;;;;;;5053246;28;20044;-75
2021/12/08 07:47:56;;;;;;;22.80;10.68;;;;;;;;;;5053447;28;20049;-81
2021/12/08 07:50:22;;;;;;;;;;;;;;;;;;5053860;28;20109;-72
2021/12/08 07:52:51;;;;;;;18.73;9.45;;;;;;;;;;5053615;28;19921;-77
2021/12/08 07:55:22;;;;;;;20.40;8.98;;;;;;;;;;5053487;28;20052;-76
2021/12/08 07:57:50;;;;;;;20.50;8.77;;;;;;;;;;5053219;28;20482;-73
2021/12/08 08:00:23;;;;;;;18.48;8.93;;;;;;;;;;5053602;28;20102;-71
2021/12/08 08:02:50;;;;;;;20.33;8.20;;;;;;;;;;5053567;28;20052;-72
2021/12/08 08:05:16;;;;;;;19.75;7.85;;;;;;;;;;5053346;28;20076;-81
2021/12/08 08:07:43;;;;;;;20.50;7.88;;;;;;;;;;5052722;28;20527;-81
2021/12/08 08:10:14;;;;;;;19.97;8.00;;;;;;;;;;5051958;28;20132;-80
2021/12/08 08:12:41;;;;;;;16.37;7.20;;;;;;;;;;5052765;28;20067;-84
2021/12/08 08:15:11;;;;;;;19.73;6.70;;;;;;;;;;5053420;28;20055;-82
2021/12/08 08:17:42;;;;;;;17.05;6.90;;;;;;;;;;5052574;28;20045;-88
2021/12/08 08:20:11;;;;;;;18.50;6.60;;;;;;;;;;5053197;28;20052;-77
2021/12/08 08:22:40;;;;;;;19.00;6.43;;;;;;;;;;5051471;28;20075;-80
2021/12/08 08:25:09;;;;;;;15.88;5.72;;;;;;;;;;5052031;28;20539;-77
2021/12/08 08:27:35;;;;;;;26.92;6.68;;;;;;;;;;5052605;28;20045;-77
2021/12/08 08:30:02;;;;;;;18.38;6.82;;;;;;;;;;5064305;28;20037;-84
2021/12/08 08:32:34;;;;;;;20.50;7.50;;;;;;;;;;5058353;28;20094;-74
2021/12/08 08:35:04;;;;;;;21.40;7.38;;;;;;;;;;5056885;28;20127;-83
2021/12/08 08:37:31;;;;;;;19.67;7.23;;;;;;;;;;5062505;28;20057;-80
2021/12/08 08:39:59;;;;;;;15.73;6.63;;;;;;;;;;5069192;28;20116;-74
2021/12/08 08:42:27;;;;;;;17.10;7.65;;;;;;;;;;5060505;28;20400;-73
2021/12/08 08:45:06;;;;;;;20.65;7.60;;;;;;;;;;5066253;28;20080;-73
2021/12/08 08:47:41;;;;;;;17.13;6.80;;;;;;;;;;5052327;28;20105;-73
2021/12/08 08:50:09;;;;;;;15.45;6.18;;;;;;;;;;5055071;28;20080;-82
2021/12/08 08:52:37;;;;;;;23.00;6.68;;;;;;;;;;5034667;28;20143;-75
2021/12/08 08:55:15;;;;;;;16.55;5.97;;;;;;;;;;5068367;28;20552;-81
2021/12/08 08:57:42;;;;;;;17.65;5.88;;;;;;;;;;5068412;28;20151;-74
2021/12/08 09:00:14;;;;;;;17.88;5.32;;;;;;;;;;5036264;28;20052;-82
2021/12/08 09:02:41;;;;;;;13.67;5.30;;;;;;;;;;5051233;28;20060;-83
2021/12/08 09:05:10;;;;;;;16.05;5.78;;;;;;;;;;5051688;28;20056;-75
2021/12/08 09:07:42;;;;;;;16.23;5.25;;;;;;;;;;5051251;28;20048;-78
2021/12/08 09:10:10;;;;;;;18.08;5.78;;;;;;;;;;5051957;28;20041;-80
2021/12/08 09:12:39;;;;;;;14.67;5.07;;;;;;;;;;5066111;28;20480;-77
2021/12/08 09:15:11;;;;;;;20.75;5.40;;;;;;;;;;5071749;28;20102;-86
2021/12/08 09:17:40;;;;;;;17.92;5.50;;;;;;;;;;5070047;28;20131;-82
2021/12/08 09:20:24;;;;;;;21.58;5.22;;;;;;;;;;5071452;28;20059;-82
2021/12/08 09:22:57;;;;;;;17.23;5.07;;;;;;;;;;5071186;28;20052;-78
2021/12/08 09:25:30;;;;;;;19.45;5.15;;;;;;;;;;5070492;28;20103;-75
2021/12/08 09:27:58;;;;;;;18.73;5.57;;;;;;;;;;5071147;28;20135;-86
2021/12/08 09:30:33;;;;;;;17.33;5.53;;;;;;;;;;5071598;28;20040;-77
2021/12/08 09:33:01;;;;;;;18.17;4.72;;;;;;;;;;5070043;28;20094;-71
2021/12/08 09:35:33;;;;;;;15.23;4.53;;;;;;;;;;5070076;28;20124;-71
2021/12/08 09:38:05;;;;;;;19.60;5.13;;;;;;;;;;5070899;28;20128;-76
2021/12/08 09:40:37;;;;;;;15.93;5.00;;;;;;;;;;5071564;28;20131;-77
2021/12/08 09:43:08;;;;;;;16.80;4.60;;;;;;;;;;5071433;28;20052;-73
2021/12/08 09:45:39;;;;;;;17.65;4.28;;;;;;;;;;5071411;28;20105;-78
2021/12/08 09:48:07;;;;;;;20.23;5.10;;;;;;;;;;5069562;28;20082;-83
2021/12/08 09:50:34;;;;;;;15.15;4.50;;;;;;;;;;5071018;28;20068;-76
2021/12/08 09:53:01;;;;;;;10.80;4.37;;;;;;;;;;5069326;28;20354;-76
2021/12/08 09:55:27;;;;;;;;;;;;;;;;;;5054061;28;20052;-81
2021/12/08 09:57:53;;;;;;;22.20;5.18;;;;;;;;;;5086620;28;19927;-77
2021/12/08 10:00:23;;;;;;;17.88;5.15;;;;;;;;;;5071216;28;20074;-80
2021/12/08 10:02:53;;;;;;;20.20;4.60;;;;;;;;;;5070354;28;20048;-76
2021/12/08 10:05:20;;;;;;;22.98;5.22;;;;;;;;;;5071257;28;20055;-77
2021/12/08 10:07:46;;;;;;;18.55;4.93;;;;;;;;;;5069073;28;20503;-75
2021/12/08 10:10:14;;;;;;;13.90;4.90;;;;;;;;;;5070751;28;20052;-74
2021/12/08 10:12:40;;;;;;;21.03;5.40;;;;;;;;;;5070789;28;20117;-83
2021/12/08 10:15:09;;;;;;;21.30;5.32;;;;;;;;;;5070704;28;20123;-72
2021/12/08 10:17:35;;;;;;;15.00;4.82;;;;;;;;;;5070605;28;20044;-73
2021/12/08 10:20:20;;;;;;;16.05;4.85;;;;;;;;;;5053079;28;20063;-72
2021/12/08 10:23:07;;;;;;;19.75;5.10;;;;;;;;;;5073107;28;20438;-75
2021/12/08 10:25:35;;;;;;;20.95;5.30;;;;;;;;;;5070131;28;20520;-82
2021/12/08 10:28:06;;;;;;;17.02;4.90;;;;;;;;;;5073638;28;20139;-76
2021/12/08 10:30:40;;;;;;;18.35;4.85;;;;;;;;;;5071261;28;20207;-72
2021/12/08 10:33:11;;;;;;;18.35;5.32;;;;;;;;;;5070475;28;20109;-80
2021/12/08 10:35:48;;;;;;;22.15;4.93;;;;;;;;;;5070759;28;20132;-75
2021/12/08 10:38:16;;;;;;;20.90;5.45;;;;;;;;;;5070657;28;20110;-71
2021/12/08 10:41:02;;;;;;;13.23;4.80;;;;;;;;;;5069480;28;20135;-81
2021/12/08 10:43:28;;;;;;;16.55;4.93;;;;;;;;;;5070054;28;20409;-80
2021/12/08 10:46:10;;;;;;;13.07;4.40;;;;;;;;;;5069931;28;20094;-72
2021/12/08 10:48:41;;;;;;;21.67;4.97;;;;;;;;;;5070233;28;20044;-77
2021/12/08 10:54:27;;;;;;;13.70;4.55;;;;;;;;;;5070440;28;20147;-83
2021/12/08 10:56:57;;;;;;;19.45;4.97;;;;;;;;;;5070065;28;20150;-79
2021/12/08 10:59:25;;;;;;;14.35;4.43;;;;;;;;;;5070337;28;20087;-74
2021/12/08 11:01:53;;;;;;;17.90;4.80;;;;;;;;;;5070059;28;20059;-75
2021/12/08 11:04:31;;;;;;;13.77;4.03;;;;;;;;;;5052542;28;20245;-83
2021/12/08 11:07:07;;;;;;;19.75;4.57;;;;;;;;;;5069689;28;20048;-80
2021/12/08 11:09:41;;;;;;;17.33;4.90;;;;;;;;;;5070297;28;20124;-69
2021/12/08 11:12:07;;;;;;;17.35;4.32;;;;;;;;;;5069761;28;20049;-72
2021/12/08 11:14:47;;;;;;;21.10;4.72;;;;;;;;;;5070250;28;20044;-76
2021/12/08 11:17:25;;;;;;;15.77;4.57;;;;;;;;;;5069646;28;20131;-81
2021/12/08 11:20:11;;;;;;;20.67;5.03;;;;;;;;;;5069966;28;20041;-73
2021/12/08 11:22:37;;;;;;;16.45;4.45;;;;;;;;;;5068995;28;20051;-80
2021/12/08 11:25:04;;;;;;;16.73;4.63;;;;;;;;;;5069113;28;20052;-81
2021/12/08 11:27:36;;;;;;;17.33;5.13;;;;;;;;;;5069943;28;20053;-87
2021/12/08 11:30:13;;;;;;;21.92;5.40;;;;;;;;;;5069659;28;20350;-79
2021/12/08 11:32:39;;;;;;;19.23;4.90;;;;;;;;;;5069778;28;20067;-74
2021/12/08 11:35:05;;;;;;;23.30;5.03;;;;;;;;;;5071283;28;20056;-78
2021/12/08 11:37:35;;;;;;;15.27;4.97;;;;;;;;;;5072937;28;20076;-85
2021/12/08 11:40:02;;;;;;;19.13;4.60;;;;;;;;;;5073192;28;20044;-74
2021/12/08 11:42:34;;;;;;;17.20;5.30;;;;;;;;;;5073733;28;20079;-76
2021/12/08 11:45:02;;;;;;;18.20;5.10;;;;;;;;;;5072993;28;20055;-73
2021/12/08 11:47:32;;;;;;;21.15;5.70;;;;;;;;;;5072264;28;20048;-76
2021/12/08 11:49:59;;;;;;;20.75;5.15;;;;;;;;;;5073043;28;20124;-81
2021/12/08 11:52:29;;;;;;;15.13;4.38;;;;;;;;;;5072176;28;20065;-73
2021/12/08 11:55:04;;;;;;;17.83;4.53;;;;;;;;;;5071868;28;20071;-69
2021/12/08 11:57:39;;;;;;;17.75;4.20;;;;;;;;;;5073062;28;20124;-75
2021/12/08 12:00:06;;;;;;;14.80;4.88;;;;;;;;;;5071287;28;20064;-75
2021/12/08 12:02:38;;;;;;;16.90;4.78;;;;;;;;;;5073528;28;20052;-77
2021/12/08 12:05:06;;;;;;;19.15;4.80;;;;;;;;;;5073461;28;20585;-69
2021/12/08 12:07:32;;;;;;;18.45;4.65;;;;;;;;;;5076130;28;20206;-76
2021/12/08 12:09:58;;;;;;;19.25;4.63;;;;;;;;;;5072033;28;20093;-75
2021/12/08 12:12:24;;;;;;;17.27;4.78;;;;;;;;;;5054788;28;20481;-76
2021/12/08 12:14:51;;;;;;;18.35;4.72;;;;;;;;;;5072971;28;20047;-78
2021/12/08 12:17:17;;;;;;;20.70;4.95;;;;;;;;;;5071579;28;20449;-81
2021/12/08 12:19:49;;;;;;;15.68;4.82;;;;;;;;;;5072951;28;20044;-77
2021/12/08 12:22:24;;;;;;;21.60;5.07;;;;;;;;;;5072156;28;20047;-73
2021/12/08 12:24:53;;;;;;;13.32;4.90;;;;;;;;;;5072546;28;20056;-80
2021/12/08 12:27:25;;;;;;;18.67;4.82;;;;;;;;;;5072270;28;20573;-76
2021/12/08 12:30:07;;;;;;;14.48;5.22;;;;;;;;;;5072629;28;20052;-85
2021/12/08 12:32:38;;;;;;;17.17;5.15;;;;;;;;;;5072422;28;20052;-86
2021/12/08 12:35:13;;;;;;;20.95;4.97;;;;;;;;;;5072314;28;20057;-84
2021/12/08 12:37:39;;;;;;;18.50;5.90;;;;;;;;;;5072580;28;20113;-84
2021/12/08 12:40:05;;;;;;;;;;;;;;;;;;5072505;28;20171;-76
2021/12/08 12:42:55;;;;;;;19.73;6.38;;;;;;;;;;5071113;28;20398;-78
2021/12/08 12:45:22;;;;;;;17.08;5.80;;;;;;;;;;5065213;28;20048;-75
2021/12/08 12:48:07;;;;;;;18.75;5.60;;;;;;;;;;5072218;28;20404;-77
2021/12/08 12:50:51;;;;;;;17.17;5.80;;;;;;;;;;5072279;28;20048;-78
2021/12/08 12:53:30;;;;;;;17.70;5.65;;;;;;;;;;5071625;28;20131;-71
2021/12/08 12:55:56;;;;;;;16.92;5.70;;;;;;;;;;5072078;28;20044;-80
2021/12/08 12:58:22;;;;;;;19.13;6.00;;;;;;;;;;5071403;28;20056;-83
2021/12/08 13:01:05;;;;;;;15.93;5.30;;;;;;;;;;5070769;28;20052;-74
2021/12/08 13:03:42;;;;;;;16.42;5.40;;;;;;;;;;5070366;28;20091;-76
2021/12/08 13:06:08;;;;;;;;;;;;;;;;;;5072557;28;20067;-75
2021/12/08 13:08:34;;;;;;;17.92;6.40;;;;;;;;;;5071307;28;20380;-80
2021/12/08 13:11:29;;;;;;;15.80;6.22;;;;;;;;;;5071874;28;20488;-85
2021/12/08 13:13:56;;;;;;;18.92;7.53;;;;;;;;;;5062534;28;20044;-73
2021/12/08 13:16:22;;;;;;;17.73;5.18;;;;;;;;;;5069894;28;20048;-79
2021/12/08 13:18:56;;;;;;;20.90;5.70;;;;;;;;;;5071448;28;20079;-78
2021/12/08 13:21:37;;;;;;;20.77;6.78;;;;;;;;;;5070093;28;20045;-78
2021/12/08 13:24:04;;;;;;;18.33;5.30;;;;;;;;;;5071564;28;20401;-71
2021/12/08 13:26:44;;;;;;;14.25;5.40;;;;;;;;;;5069996;28;20036;-74
2021/12/08 13:29:22;;;;;;;16.15;5.90;;;;;;;;;;5070459;28;20049;-75
2021/12/08 13:32:28;;;;;;;17.38;5.00;;;;;;;;;;5070332;28;20417;-76
2021/12/08 13:35:05;;;;;;;13.70;4.95;;;;;;;;;;5066604;28;20060;-75
2021/12/08 13:37:31;;;;;;;13.98;5.10;;;;;;;;;;5069628;28;20404;-81
2021/12/08 13:40:15;;;;;;;14.77;5.15;;;;;;;;;;5070922;28;20040;-80
2021/12/08 13:42:49;;;;;;;15.55;5.45;;;;;;;;;;5071626;28;20041;-74
2021/12/08 13:45:16;;;;;;;15.68;6.25;;;;;;;;;;5071352;28;20063;-74
2021/12/08 13:47:47;;;;;;;15.75;5.30;;;;;;;;;;5072812;28;20040;-77
2021/12/08 13:50:15;;;;;;;17.90;5.13;;;;;;;;;;5073546;28;20055;-77
2021/12/08 13:52:43;;;;;;;17.70;5.65;;;;;;;;;;5070360;28;20056;-77
2021/12/08 13:55:09;;;;;;;14.30;5.13;;;;;;;;;;5071218;28;20059;-79
2021/12/08 13:57:35;;;;;;;17.20;5.00;;;;;;;;;;5070475;28;20127;-71
2021/12/08 14:00:05;;;;;;;13.32;4.93;;;;;;;;;;5070995;28;20492;-74
2021/12/08 14:02:32;;;;;;;22.58;6.13;;;;;;;;;;5070455;28;20098;-72
2021/12/08 14:05:19;;;;;;;13.80;5.13;;;;;;;;;;5070722;28;20041;-86
2021/12/08 14:07:55;;;;;;;20.73;6.15;;;;;;;;;;5069668;28;20048;-82
2021/12/08 14:10:24;;;;;;;15.50;4.90;;;;;;;;;;5070066;28;20507;-79
2021/12/08 14:12:52;;;;;;;17.02;4.38;;;;;;;;;;5070727;28;20290;-75
2021/12/08 14:15:32;;;;;;;16.30;4.90;;;;;;;;;;5069155;28;20047;-79
2021/12/08 14:18:16;;;;;;;17.90;4.97;;;;;;;;;;5070914;28;20045;-76
2021/12/08 14:20:45;;;;;;;16.27;4.82;;;;;;;;;;5070039;28;20404;-78
2021/12/08 14:23:11;;;;;;;14.75;4.60;;;;;;;;;;5069409;28;20460;-80
2021/12/08 14:25:39;;;;;;;14.40;4.82;;;;;;;;;;5070003;28;20044;-80
2021/12/08 14:28:24;;;;;;;16.77;4.97;;;;;;;;;;5070274;28;20118;-75
2021/12/08 14:30:50;;;;;;;17.05;5.38;;;;;;;;;;5070588;28;20049;-83
2021/12/08 14:33:22;;;;;;;18.75;5.13;;;;;;;;;;5069466;28;20040;-80
2021/12/08 14:35:55;;;;;;;18.58;5.38;;;;;;;;;;5069286;28;20440;-76
2021/12/08 14:38:21;;;;;;;11.73;4.35;;;;;;;;;;5070304;28;20055;-82
2021/12/08 14:40:47;;;;;;;17.33;5.22;;;;;;;;;;5070050;28;20499;-73
2021/12/08 14:43:34;;;;;;;17.67;4.95;;;;;;;;;;5070572;28;20048;-85
2021/12/08 14:46:10;;;;;;;15.05;4.93;;;;;;;;;;5071090;28;20067;-78
2021/12/08 14:48:38;;;;;;;17.17;5.13;;;;;;;;;;5068640;28;20049;-74
2021/12/08 14:51:04;;;;;;;13.35;4.32;;;;;;;;;;5070190;28;20049;-77
2021/12/08 14:53:34;;;;;;;19.92;5.60;;;;;;;;;;5069699;28;20084;-80
2021/12/08 14:56:10;;;;;;;17.48;4.90;;;;;;;;;;5070336;28;20080;-83
2021/12/08 14:58:37;;;;;;;16.80;4.87;;;;;;;;;;5069727;28;20048;-71
2021/12/08 15:01:03;;;;;;;14.35;4.65;;;;;;;;;;5068674;28;20060;-83
2021/12/08 15:03:29;;;;;;;16.58;5.18;;;;;;;;;;5069366;28;20087;-81
2021/12/08 15:05:55;;;;;;;17.85;5.15;;;;;;;;;;5066918;28;20075;-80
2021/12/08 15:08:24;;;;;;;14.13;4.75;;;;;;;;;;5063426;28;20052;-76
2021/12/08 15:10:50;;;;;;;17.60;5.85;;;;;;;;;;5072380;28;20241;-76
2021/12/08 15:13:24;;;;;;;17.42;5.88;;;;;;;;;;5064751;28;20040;-75
2021/12/08 15:15:56;;;;;;;13.00;4.53;;;;;;;;;;5059672;28;20059;-85
2021/12/08 15:18:24;;;;;;;19.63;4.90;;;;;;;;;;5064893;28;20047;-84
2021/12/08 15:21:09;;;;;;;18.75;5.55;;;;;;;;;;5065550;28;20049;-76
2021/12/08 15:23:43;;;;;;;15.65;5.22;;;;;;;;;;5062455;28;20057;-77
2021/12/08 15:26:10;;;;;;;16.90;4.80;;;;;;;;;;5060151;28;20198;-81
2021/12/08 15:28:36;;;;;;;14.60;4.90;;;;;;;;;;5061263;28;20134;-91
2021/12/08 15:31:04;;;;;;;18.05;4.95;;;;;;;;;;5068522;28;20051;-73
2021/12/08 15:33:31;;;;;;;19.60;4.45;;;;;;;;;;5064077;28;20539;-70
2021/12/08 15:36:06;;;;;;;13.70;4.57;;;;;;;;;;5060706;28;20041;-69
